Terminal Aerodrome Forecast
Issued by NWS

Current Version | Previous Version | Graphics & Text | Print | Product List | Glossary On
Versions: 1 2 3 4 5 6 7 8 9 10 11 12 13 14 15 16 17 18 19 20
401
FTUS41 KRLX 080326 AAA
TAFCKB
TAF AMD
KCKB 080326Z 0803/0824 00000KT P6SM SKC
     FM081400 17004KT 3SM -RASN OVC025
     FM081600 18005KT 2SM -RA OVC017
     FM081900 21005KT 1 1/2SM -RA OVC008=

USA.gov is the U.S. government's official web portal to all federal, state and local government web resources and services.